Time;durP1;ratioP1;P1;durP2;ratioP2;P2;SDS_P1;SDS_P2;PMS_P1;PMS_P2;Temp;Humidity;BMP_temperature;BMP_pressure;BME280_temperature;BME280_humidity;BME280_pressure;Samples;Min_cycle;Max_cycle;Signal;HPM_P1;HPM_P2
2022/12/27 00:05:10;;;;;;;9.13;5.72;;;;;;;9.52;70.11;100909.66;18418085;32;20175;-60
2022/12/27 00:15:13;;;;;;;2.28;2.08;;;;;;;9.14;72.15;100917.06;18417812;32;20105;-60
2022/12/27 00:25:18;;;;;;;3.80;2.78;;;;;;;8.73;72.78;100884.47;18417382;32;20112;-60
2022/12/27 00:35:21;;;;;;;2.95;2.60;;;;;;;8.98;72.00;100899.53;18416644;32;20115;-60
2022/12/27 00:45:25;;;;;;;1.55;1.50;;;;;;;9.32;70.37;100888.63;18415232;32;20092;-60
2022/12/27 00:55:29;;;;;;;1.52;1.42;;;;;;;9.05;71.19;100866.63;18415609;32;20096;-60
2022/12/27 01:05:36;;;;;;;0.98;0.98;;;;;;;9.05;70.89;100835.38;18415351;32;20105;-60
2022/12/27 01:15:41;;;;;;;1.37;1.27;;;;;;;9.05;70.64;100874.44;18415840;32;20097;-60
2022/12/27 01:25:46;;;;;;;1.52;1.42;;;;;;;8.74;71.74;100860.19;18414099;32;20104;-60
2022/12/27 01:35:49;;;;;;;1.60;1.50;;;;;;;8.93;71.08;100847.41;18413870;32;20122;-60
2022/12/27 01:45:53;;;;;;;1.05;0.95;;;;;;;8.31;73.06;100841.34;18413131;32;20107;-59
2022/12/27 01:55:59;;;;;;;1.00;0.82;;;;;;;7.96;75.90;100854.69;18422083;32;20110;-60
2022/12/27 02:06:06;;;;;;;1.62;1.52;;;;;;;8.41;74.29;100838.03;18422295;32;20108;-60
2022/12/27 02:16:11;;;;;;;0.65;0.65;;;;;;;8.93;73.79;100831.78;18421970;32;20108;-60
2022/12/27 02:26:37;;;;;;;0.60;0.60;;;;;;;9.09;73.37;100837.13;18421695;32;20382;-60
2022/12/27 02:36:43;;;;;;;0.80;0.80;;;;;;;9.81;72.65;100839.56;18421633;32;20082;-60
2022/12/27 02:57:18;;;;;;;0.60;0.60;;;;;;;10.20;71.23;100838.97;18420962;32;20085;-60
2022/12/27 03:07:27;;;;;;;0.77;0.77;;;;;;;10.43;71.86;100806.94;18419669;32;20093;-60
2022/12/27 03:17:34;;;;;;;0.75;0.75;;;;;;;11.00;67.90;100814.09;18419932;32;20085;-60
2022/12/27 03:27:38;;;;;;;0.40;0.40;;;;;;;12.09;62.26;100827.28;18419602;32;20380;-60
2022/12/27 03:38:04;;;;;;;0.40;0.40;;;;;;;12.52;59.29;100842.00;18419358;32;20096;-60
2022/12/27 03:48:10;;;;;;;0.50;0.50;;;;;;;12.65;57.93;100841.06;18418381;31;20493;-60
2022/12/27 03:58:15;;;;;;;0.50;0.50;;;;;;;12.93;57.30;100850.59;18418122;32;20093;-60
2022/12/27 04:39:23;;;;;;;0.50;0.50;;;;;;;12.96;55.50;100898.63;18416861;32;20631;-60
2022/12/27 05:20:33;;;;;;;0.40;0.40;;;;;;;13.09;55.53;100967.59;18414638;32;20080;-60
2022/12/27 05:30:38;;;;;;;0.60;0.60;;;;;;;13.02;55.67;100992.06;18422983;32;20097;-60
2022/12/27 05:40:43;;;;;;;0.50;0.50;;;;;;;12.93;55.42;100992.09;18423649;32;20129;-60
2022/12/27 05:50:46;;;;;;;0.50;0.50;;;;;;;13.11;55.05;100996.41;18422600;31;20120;-60
2022/12/27 06:00:50;;;;;;;0.50;0.50;;;;;;;12.68;55.93;101013.97;18417760;32;20108;-60
2022/12/27 06:11:02;;;;;;;0.98;0.98;;;;;;;12.63;56.19;101041.91;18361781;32;20123;-60
2022/12/27 06:21:07;;;;;;;0.93;0.93;;;;;;;12.56;56.70;101054.13;18421487;32;20089;-60
2022/12/27 06:31:11;;;;;;;0.50;0.50;;;;;;;12.55;56.48;101069.84;18406623;32;20224;-60
2022/12/27 06:41:17;;;;;;;0.80;0.70;;;;;;;12.61;55.76;101081.22;18388696;32;20112;-60
2022/12/27 06:51:21;;;;;;;0.50;0.50;;;;;;;12.43;56.09;101096.91;18375282;31;20168;-60
2022/12/27 07:01:26;;;;;;;0.50;0.50;;;;;;;12.68;56.05;101104.75;18383110;32;20093;-60
2022/12/27 07:11:32;;;;;;;0.45;0.45;;;;;;;12.76;55.51;101137.06;18409526;32;20111;-60
2022/12/27 07:21:36;;;;;;;0.50;0.50;;;;;;;12.72;55.12;101140.59;18390265;32;20097;-60
2022/12/27 07:31:41;;;;;;;0.55;0.55;;;;;;;13.10;53.43;101152.81;18385451;32;20193;-60
2022/12/27 07:41:45;;;;;;;0.40;0.40;;;;;;;12.60;53.84;101170.25;18380113;32;20085;-60
2022/12/27 07:51:48;;;;;;;0.45;0.45;;;;;;;12.20;54.97;101202.41;18382930;31;20113;-60
2022/12/27 08:02:05;;;;;;;0.43;0.43;;;;;;;12.31;54.65;101215.56;18360324;32;20181;-60
2022/12/27 08:12:09;;;;;;;0.37;0.37;;;;;;;11.64;56.46;101242.22;18375602;32;20092;-60
2022/12/27 08:22:15;;;;;;;0.52;0.52;;;;;;;11.80;55.86;101258.88;18370776;32;20216;-58
2022/12/27 08:32:18;;;;;;;0.50;0.50;;;;;;;11.87;55.02;101280.72;18352811;32;20442;-60
2022/12/27 08:42:23;;;;;;;0.50;0.50;;;;;;;11.87;54.50;101317.34;18353306;32;20124;-61
2022/12/27 08:52:27;;;;;;;0.55;0.55;;;;;;;11.78;53.97;101343.44;18396891;31;20092;-60
2022/12/27 09:02:31;;;;;;;0.60;0.60;;;;;;;11.66;53.73;101367.75;18406276;32;20679;-60
2022/12/27 09:12:34;;;;;;;0.60;0.60;;;;;;;11.51;53.97;101371.09;18362479;32;20145;-61
2022/12/27 09:22:39;;;;;;;0.50;0.50;;;;;;;11.68;53.58;101371.28;18397111;32;20112;-60
2022/12/27 09:32:42;;;;;;;0.98;0.98;;;;;;;11.80;53.44;101381.84;18413780;32;20167;-60
2022/12/27 09:42:52;;;;;;;0.60;0.60;;;;;;;12.20;51.65;101393.50;18409937;32;20122;-60
2022/12/27 09:53:18;;;;;;;0.50;0.50;;;;;;;11.72;49.79;101400.97;18386374;32;20105;-60
2022/12/27 10:03:25;;;;;;;0.50;0.50;;;;;;;11.74;48.38;101426.25;18372973;32;20098;-60
2022/12/27 10:13:41;;;;;;;0.52;0.52;;;;;;;10.85;47.03;101447.91;18385232;32;20085;-60
2022/12/27 10:23:49;;;;;;;0.52;0.52;;;;;;;11.01;46.00;101459.44;18375701;32;20141;-60
2022/12/27 10:33:52;;;;;;;0.60;0.60;;;;;;;11.26;45.41;101453.63;18399830;32;20117;-60
2022/12/27 10:43:57;;;;;;;0.50;0.50;;;;;;;11.42;43.49;101458.19;18398396;32;20093;-62
2022/12/27 10:54:01;;;;;;;0.70;0.70;;;;;;;11.36;42.04;101479.00;18402168;32;20463;-61
2022/12/27 11:04:12;;;;;;;0.50;0.50;;;;;;;10.75;44.77;101483.44;18420549;32;20389;-61
2022/12/27 11:14:22;;;;;;;0.60;0.60;;;;;;;10.93;45.44;101482.84;18403337;32;20361;-62
2022/12/27 11:24:27;;;;;;;0.52;0.52;;;;;;;10.93;44.58;101469.78;18390488;32;20427;-61
2022/12/27 11:34:32;;;;;;;0.50;0.50;;;;;;;10.53;44.94;101477.06;18423720;31;164807;-61
2022/12/27 11:44:40;;;;;;;0.50;0.50;;;;;;;10.90;44.82;101482.78;18364009;32;20106;-61
2022/12/27 11:55:10;;;;;;;0.73;0.73;;;;;;;10.73;43.31;101474.72;18378099;32;20104;-61
2022/12/27 12:05:50;;;;;;;0.50;0.50;;;;;;;10.74;42.34;101492.16;18412913;32;20121;-61
2022/12/27 12:16:23;;;;;;;0.60;0.60;;;;;;;11.19;40.68;101503.22;18415331;32;20428;-61
2022/12/27 12:26:32;;;;;;;0.55;0.55;;;;;;;11.03;41.76;101503.88;18422165;32;20450;-61
2022/12/27 12:36:51;;;;;;;0.50;0.50;;;;;;;10.77;40.69;101502.66;18416176;32;20124;-61
2022/12/27 12:46:57;;;;;;;0.60;0.60;;;;;;;10.35;42.54;101498.47;18421117;32;20242;-62
2022/12/27 12:57:19;;;;;;;0.50;0.50;;;;;;;10.61;41.80;101490.22;18438325;32;20093;-61
2022/12/27 13:07:31;;;;;;;0.60;0.60;;;;;;;10.10;41.88;101498.94;18394559;32;20089;-61
2022/12/27 13:17:49;;;;;;;2.72;2.05;;;;;;;10.46;42.05;101533.50;18366465;32;20105;-61
2022/12/27 13:27:58;;;;;;;0.70;0.70;;;;;;;10.06;40.56;101522.34;18376492;32;20342;-62
2022/12/27 13:38:17;;;;;;;0.50;0.50;;;;;;;10.24;40.36;101547.88;18373228;32;20117;-61
2022/12/27 13:48:41;;;;;;;0.57;0.57;;;;;;;10.38;41.25;101562.06;18396586;31;20107;-62
2022/12/27 13:59:01;;;;;;;0.60;0.60;;;;;;;9.87;41.74;101568.94;18422940;32;20123;-61
2022/12/27 14:09:37;;;;;;;0.60;0.60;;;;;;;10.08;41.18;101572.81;18422669;32;20111;-62
2022/12/27 14:19:54;;;;;;;0.60;0.60;;;;;;;9.89;41.35;101574.22;18394217;32;20103;-61
2022/12/27 14:30:11;;;;;;;0.60;0.60;;;;;;;9.69;45.62;101600.75;18401220;32;20081;-61
2022/12/27 14:40:43;;;;;;;0.50;0.50;;;;;;;9.97;41.76;101622.19;18421591;32;20488;-61
2022/12/27 14:51:13;;;;;;;0.50;0.50;;;;;;;9.64;41.52;101625.84;18416523;31;20089;-62
2022/12/27 15:01:50;;;;;;;0.50;0.50;;;;;;;9.24;42.60;101650.19;18421777;32;20112;-61
2022/12/27 15:12:03;;;;;;;0.60;0.60;;;;;;;9.00;42.78;101640.91;18415217;32;20196;-61
2022/12/27 15:22:12;;;;;;;0.70;0.70;;;;;;;8.38;44.14;101644.53;18422486;32;20489;-61
2022/12/27 15:32:25;;;;;;;0.75;0.75;;;;;;;8.70;43.22;101641.91;18419373;32;20093;-61
2022/12/27 15:42:38;;;;;;;0.60;0.60;;;;;;;8.40;43.46;101671.47;18420186;32;20081;-61
2022/12/27 15:53:08;;;;;;;2.25;2.15;;;;;;;8.15;44.45;101694.19;18412196;31;20181;-61
2022/12/27 16:03:33;;;;;;;0.70;0.70;;;;;;;8.23;43.21;101717.84;18416152;32;20150;-61
2022/12/27 16:13:42;;;;;;;0.60;0.60;;;;;;;8.39;42.40;101749.50;18371630;32;20097;-61
2022/12/27 16:23:52;;;;;;;0.55;0.55;;;;;;;8.39;42.27;101754.69;18390340;32;20357;-61
2022/12/27 16:33:56;;;;;;;0.60;0.60;;;;;;;8.33;42.53;101771.91;18388165;32;20145;-62
2022/12/27 16:44:15;;;;;;;0.70;0.70;;;;;;;8.23;42.77;101787.19;18390112;32;20132;-62
2022/12/27 16:54:28;;;;;;;0.60;0.60;;;;;;;8.38;42.55;101779.84;18388826;32;20097;-62
2022/12/27 17:04:57;;;;;;;1.12;1.12;;;;;;;8.23;42.84;101769.88;18368254;32;20493;-61
2022/12/27 17:15:04;;;;;;;0.57;0.57;;;;;;;8.27;43.36;101776.91;18351458;32;20116;-61
2022/12/27 17:25:14;;;;;;;0.60;0.60;;;;;;;8.24;43.63;101776.84;18357761;32;20145;-61
2022/12/27 17:35:22;;;;;;;0.95;0.95;;;;;;;7.96;44.00;101785.50;18414520;32;20089;-62
2022/12/27 17:45:40;;;;;;;0.55;0.55;;;;;;;8.15;43.98;101776.56;18367214;32;20361;-62
2022/12/27 18:06:09;;;;;;;0.50;0.50;;;;;;;8.24;44.85;101792.44;18425414;32;20121;-61
2022/12/27 18:16:15;;;;;;;0.50;0.50;;;;;;;7.96;45.05;101791.59;18366076;32;20105;-61
2022/12/27 18:26:21;;;;;;;0.70;0.70;;;;;;;7.73;45.57;101796.09;18359546;32;20171;-61
2022/12/27 18:36:28;;;;;;;2.17;2.00;;;;;;;7.29;46.40;101802.44;18400148;32;20491;-61
2022/12/27 18:46:36;;;;;;;3.70;1.40;;;;;;;7.08;47.38;101808.69;18386965;32;20797;-61
2022/12/27 18:56:41;;;;;;;2.67;2.58;;;;;;;6.52;49.95;101806.69;18384480;32;20108;-60
2022/12/27 19:06:51;;;;;;;0.60;0.60;;;;;;;6.29;49.32;101823.13;18384168;32;20100;-61
2022/12/27 19:16:57;;;;;;;1.00;1.00;;;;;;;5.27;52.43;101825.94;18368481;32;20108;-60
2022/12/27 19:27:15;;;;;;;6.53;4.57;;;;;;;5.05;53.33;101818.94;18361308;32;20460;-61
2022/12/27 19:37:19;;;;;;;1.00;1.00;;;;;;;5.20;52.59;101823.87;18357912;32;20113;-60
2022/12/27 19:47:23;;;;;;;0.62;0.62;;;;;;;4.77;54.17;101805.69;18355484;32;20113;-61
2022/12/27 19:57:27;;;;;;;0.82;0.82;;;;;;;4.67;53.48;101814.72;18367026;32;20501;-60
2022/12/27 20:07:32;;;;;;;0.60;0.60;;;;;;;4.27;54.66;101828.41;18397463;32;20089;-61
2022/12/27 20:17:36;;;;;;;0.50;0.50;;;;;;;3.89;56.44;101836.13;18407271;32;20492;-61
2022/12/27 20:27:48;;;;;;;1.33;1.30;;;;;;;3.49;57.89;101831.56;18372330;32;20101;-61
2022/12/27 20:37:51;;;;;;;1.48;1.20;;;;;;;3.63;57.49;101825.41;18355660;32;20125;-61
2022/12/27 20:47:58;;;;;;;1.00;1.00;;;;;;;3.57;58.44;101820.84;18357901;32;20138;-60
2022/12/27 20:58:03;;;;;;;0.80;0.80;;;;;;;3.75;57.80;101841.50;18379028;32;20112;-61
2022/12/27 21:08:08;;;;;;;0.80;0.80;;;;;;;3.60;57.38;101839.06;18386628;32;20108;-61
2022/12/27 21:18:11;;;;;;;0.93;0.93;;;;;;;3.64;57.20;101846.94;18379107;32;20169;-61
2022/12/27 21:28:16;;;;;;;1.37;1.08;;;;;;;3.40;57.55;101843.22;18382243;32;20121;-60
2022/12/27 21:38:20;;;;;;;0.70;0.70;;;;;;;3.19;57.86;101869.69;18385448;32;20166;-61
2022/12/27 21:48:24;;;;;;;0.80;0.80;;;;;;;2.95;58.11;101863.28;18379249;32;20119;-60
2022/12/27 21:58:30;;;;;;;0.60;0.60;;;;;;;3.03;59.00;101864.53;18375284;32;20214;-62
2022/12/27 22:08:34;;;;;;;0.80;0.80;;;;;;;3.43;58.05;101879.53;18379150;32;20113;-61
2022/12/27 22:18:40;;;;;;;2.37;2.25;;;;;;;3.49;58.23;101858.28;18389935;32;20486;-61
2022/12/27 22:28:45;;;;;;;0.60;0.60;;;;;;;4.12;56.89;101859.59;18384342;32;20406;-61
2022/12/27 22:38:49;;;;;;;0.80;0.80;;;;;;;4.18;56.78;101865.06;18373100;32;20137;-61
2022/12/27 22:48:55;;;;;;;0.70;0.70;;;;;;;4.61;55.82;101865.31;18413759;32;20143;-61
2022/12/27 22:58:59;;;;;;;0.60;0.60;;;;;;;4.35;56.40;101860.69;18384541;32;20101;-61
2022/12/27 23:09:06;;;;;;;0.95;0.95;;;;;;;4.00;56.99;101863.38;18385252;32;20115;-61
2022/12/27 23:19:14;;;;;;;0.90;0.90;;;;;;;3.97;57.52;101863.22;18367138;31;20101;-60
2022/12/27 23:29:18;;;;;;;2.45;1.65;;;;;;;3.72;58.33;101866.28;18356575;32;20369;-60
2022/12/27 23:39:22;;;;;;;0.70;0.70;;;;;;;3.41;58.58;101852.72;18381940;32;20101;-61
2022/12/27 23:49:26;;;;;;;0.70;0.70;;;;;;;3.11;58.41;101845.19;18386522;31;20239;-61
2022/12/27 23:59:29;;;;;;;0.70;0.70;;;;;;;2.94;58.90;101851.16;18387796;32;20424;-61
